• Join FlightAware (Why Join?)
  • Login
  • US Flag 
05:05PM EDT


 

Airport Tracker/Info


-or-


 

Live Flight TrackerFlight Track Log ✈ AWE2744 ✈ 28-Aug-2014 ✈ KCVG - KCLT

Flight Track Log - Related Links

Times and Time Zones

All times are in EDT time to prevent confusion due to time zone crossing. See the AWE2744 flight status page for this flight to view local times or setup timezone preferences in your user account.

Time Position Orientation Groundspeed Altitude Reporting Facility
EDT Latitude Longitude Course Direction KTS MPH feet Rate Location/Type
06:19PM 39.0333 -84.6500 159° South 179 206 1,300  Level Cincinnati TRACON
06:20PM 39.0000 -84.6333 159° South 193 222 2,400 1,740 Climbing Cincinnati TRACON
06:20PM 38.9500 -84.6167 165° South 242 278 3,800 1,980 Climbing Cincinnati TRACON
06:22PM 38.8606 -84.5947 169° South 269 310 6,700 2,280 Climbing Indianapolis Center
06:23PM 38.7758 -84.5936 179° South 296 341 9,300 1,980 Climbing Indianapolis Center
06:24PM 38.6683 -84.5775 173° South 334 384 10,900 1,740 Climbing Indianapolis Center
06:25PM 38.5686 -84.5431 165° South 368 423 13,000 2,160 Climbing Indianapolis Center
06:26PM 38.4622 -84.5097 166° South 370 426 15,400 2,100 Climbing Indianapolis Center
06:27PM 38.3600 -84.4794 167° South 373 429 17,400 1,620 Climbing Indianapolis Center
06:28PM 38.2550 -84.4503 168° South 381 438 18,800 1,260 Climbing Indianapolis Center
06:29PM 38.1464 -84.4206 168° South 394 453 20,100 1,140 Climbing Indianapolis Center
06:30PM 38.0142 -84.3833 167° South 411 473 21,200 1,080 Climbing Indianapolis Center
06:31PM 37.8981 -84.3494 167° South 421 484 22,400 1,140 Climbing Indianapolis Center
06:32PM 37.7797 -84.3164 168° South 430 495 23,600 1,200 Climbing Indianapolis Center
06:33PM 37.6608 -84.2828 167° South 432 497 24,900 1,080 Climbing Indianapolis Center
06:34PM 37.5422 -84.2503 168° South 435 501 25,900 960 Climbing Indianapolis Center
06:35PM 37.4003 -84.2117 168° South 439 505 26,900 840 Climbing Indianapolis Center
06:36PM 37.2775 -84.1775 168° South 446 513 27,700 840 Climbing Indianapolis Center
06:37PM 37.1536 -84.1425 167° South 453 521 28,700 900 Climbing Indianapolis Center
06:38PM 37.0372 -84.0825 158° South 464 534 29,600 780 Climbing Indianapolis Center
06:39PM 36.9842 -83.9394 115° Southeast 462 532 30,400 660 Climbing Indianapolis Center
06:40PM 36.9317 -83.7631 110° East 463 533 31,000 240 Climbing Indianapolis Center
06:41PM 36.8858 -83.6078 110° East 469 540 31,000  Level Indianapolis Center
06:42PM 36.8392 -83.4500 110° East 480 552 31,000 -780 Level Indianapolis Center
06:43PM 36.7928 -83.2950 110° East 480 552 29,500 -1,020 Descending Indianapolis Center
06:45PM 36.7397 -83.1222 111° Southeast 466 536 29,000 -300 Descending Indianapolis Center
06:46PM 36.6944 -82.9725 111° Southeast 466 536 29,000  Level Indianapolis Center
06:47PM 36.6481 -82.8203 111° Southeast 469 540 29,000 -300 Level Indianapolis Center
06:48PM 36.6019 -82.6656 110° East 476 548 28,500 -780 Descending Indianapolis Center
06:48PM 36.5622 -82.5397 111° Southeast 475 547 27,600 -1,260 Descending Atlanta Center
06:49PM 36.5144 -82.3881 111° Southeast 469 540 26,300 -1,320 Descending Atlanta Center
06:50PM 36.4561 -82.2500 118° Southeast 464 534 25,000 -1,080 Descending Atlanta Center
06:51PM 36.3506 -82.1647 147° Southeast 438 504 24,200 -900 Descending Atlanta Center
06:52PM 36.2578 -82.0922 148° Southeast 443 510 23,200 -1,800 Descending Atlanta Center
06:53PM 36.1478 -82.0047 147° Southeast 438 504 20,600 -2,400 Descending Atlanta Center
06:54PM 36.0442 -81.9253 148° Southeast 438 504 18,400 -2,100 Descending Atlanta Center
06:55PM 35.9492 -81.8508 148° Southeast 433 498 16,500 -1,980 Descending Atlanta Center
06:56PM 35.8539 -81.7789 149° Southeast 421 484 14,500 -1,980 Descending Atlanta Center
06:57PM 35.7567 -81.7050 148° Southeast 384 442 12,700 -1,620 Descending Atlanta Center
06:58PM 35.6761 -81.6408 147° Southeast 391 450 11,300 -1,080 Descending Atlanta Center
06:59PM 35.6358 -81.6114 149° Southeast 346 398 11,200 -300 Descending Atlanta Center
06:59PM 35.6017 -81.5792 143° Southeast 355 409 11,000 -120 Descending Atlanta Center
07:00PM 35.5739 -81.5392 130° Southeast 291 335 11,100 -420 Climbing Atlanta Center
07:00PM 35.5561 -81.4836 111° Southeast 300 345 10,600 -1,140 Descending Atlanta Center
07:01PM 35.5492 -81.4481 103° East 299 344 10,100 -1,440 Descending Atlanta Center
07:01PM 35.5372 -81.3869 103° East 285 328 9,200 -1,320 Descending Atlanta Center
07:02PM 35.5325 -81.3517 99° East 292 336 8,800 -1,140 Descending Atlanta Center
07:03PM 35.5158 -81.2653 103° East 283 326 7,800 -1,140 Descending Atlanta Center
07:03PM 35.5017 -81.1944 104° East 285 328 6,900 -1,380 Descending Atlanta Center
07:04PM 35.4969 -81.1717 104° East 287 330 6,400 -1,500 Descending Atlanta Center
07:04PM 35.4828 -81.0981 103° East 285 328 5,400 -1,500 Descending Atlanta Center
07:05PM 35.4800 -81.0753 99° East 286 329 4,900 -900 Descending Atlanta Center
07:05PM 35.4536 -81.0175 119° Southeast 273 314 4,500 -540 Descending Atlanta Center
07:06PM 35.4408 -81.0078 148° Southeast 245 282 4,400 -300 Descending Atlanta Center
07:06PM 35.4006 -80.9786 149° Southeast 218 251 4,200 -480 Descending Atlanta Center
07:07PM 35.3817 -80.9769 176° South 171 197 3,900 -1,020 Descending Atlanta Center
07:08PM 35.3356 -80.9658 169° South 174 200 2,900 -1,020 Descending Atlanta Center
07:09PM 35.2875 -80.9625 177° South 169 194 2,000 -840 Descending Atlanta Center
07:10PM 35.2478 -80.9564 173° South 142 163 1,300 -720 Descending Atlanta Center
07:12PM 35.2000 -80.9333 171° South  Level FlightAware Approximate